Geneseo, New York
Current Conditions -  °F | °C
As of 4:54 AM on Friday 19 Dec 2014 (Local Time) from KDSV Reporting Station
Overcast Overcast  
Wind Chill: 18°   Ceiling: 1800
Heat Index: 28°   Visibility: 10mi
Dew Point: 21°   Wind: 12mph
Humidity: 75%   Direction: 300°WNW
Pressure: 30.08"   Gusts: 22mph
Location:  42.79°N, 77.82°W
Report Text: KDSV 190954Z AUTO 30010G19KT 10SM OVC018 M02/M06 A3008 RMK AO2 UPB05E13 SLP202 P0000 T10221061
Loading
Personal Weather Stations






























Interactive Weather Map New forecast layout! Learn more

10-Day Weather Forecast

Advertisements
Track Severe Weather on mobile